Costa, West Virginia
Current Conditions -  °F | °C
As of 5:54 PM on Sunday 28 Dec 2014 (Local Time) from KCRW Reporting Station
Light Rain Light Rain  
Wind Chill: 34°   Ceiling: 300
Heat Index: 40°   Visibility: 2mi
Dew Point: 38°   Wind: 8mph
Humidity: 93%   Direction: 310°NW
Pressure: 30.11"   Gusts: NA
Location:  38.16°N, 81.72°W
Report Text: KCRW 282254Z 31007KT 2SM -RA BR OVC003 04/03 A3011 RMK AO2 SLP199 VLY FG P0001 T00440033 $
Loading
Personal Weather Stations






























Interactive Weather Map New forecast layout! Learn more

10-Day Weather Forecast

Advertisements
Track Severe Weather on mobile